createdAt,value
2019-05-11T00:01:47.759Z,19.33
2019-05-11T00:04:15.698Z,17.90
2019-05-11T00:10:11.724Z,17.90
2019-05-11T00:12:39.620Z,20.17
2019-05-11T00:15:08.471Z,20.67
2019-05-11T00:21:03.904Z,20.07
2019-05-11T00:23:34.501Z,18.93
2019-05-11T00:29:30.340Z,19.87
2019-05-11T00:31:58.088Z,21.10
2019-05-11T00:34:25.969Z,21.30
2019-05-11T00:40:22.951Z,21.07
2019-05-11T00:42:53.793Z,21.53
2019-05-11T00:45:21.465Z,21.40
2019-05-11T00:51:18.399Z,19.37
2019-05-11T00:53:46.083Z,20.67
2019-05-11T00:59:41.395Z,20.40
2019-05-11T01:02:11.331Z,23.53
2019-05-11T01:04:39.110Z,22.87
2019-05-11T01:10:29.042Z,21.57
2019-05-11T01:12:52.819Z,21.20
2019-05-11T01:15:20.769Z,22.60
2019-05-11T01:21:28.128Z,21.70
2019-05-11T01:23:55.962Z,23.17
2019-05-11T01:29:51.840Z,23.83
2019-05-11T01:32:19.513Z,23.50
2019-05-11T01:34:47.262Z,22.83
2019-05-11T01:40:57.615Z,22.73
2019-05-11T01:43:12.214Z,22.43
2019-05-11T01:45:40.971Z,21.10
2019-05-11T01:48:08.643Z,22.30
2019-05-11T01:50:36.313Z,23.90
2019-05-11T01:53:04.095Z,21.67
2019-05-11T01:55:31.887Z,21.23
2019-05-11T02:01:28.268Z,23.17
2019-05-11T02:03:56.063Z,21.00
2019-05-11T02:09:51.679Z,19.93
2019-05-11T02:12:19.345Z,21.20
2019-05-11T02:14:47.031Z,18.90
2019-05-11T02:20:54.574Z,19.10
2019-05-11T02:23:22.310Z,18.73
2019-05-11T02:25:50.076Z,19.77
2019-05-11T02:28:17.781Z,19.80
2019-05-11T02:30:45.618Z,19.23
2019-05-11T02:33:35.375Z,19.30
2019-05-11T02:39:30.828Z,17.83
2019-05-11T02:41:58.584Z,18.97
2019-05-11T02:44:26.299Z,19.40
2019-05-11T02:50:22.305Z,20.17
2019-05-11T02:52:50.285Z,20.83
2019-05-11T02:55:18.371Z,19.93
2019-05-11T03:01:13.340Z,17.80
2019-05-11T03:03:41.868Z,19.63
2019-05-11T03:06:09.760Z,18.17
2019-05-11T03:08:37.511Z,18.77
2019-05-11T03:11:05.235Z,17.63
2019-05-11T03:13:32.905Z,19.40
2019-05-11T03:19:41.763Z,19.80
2019-05-11T03:22:09.441Z,18.97
2019-05-11T03:24:37.171Z,17.83
2019-05-11T03:30:32.517Z,19.40
2019-05-11T03:33:00.303Z,20.17
2019-05-11T03:35:29.563Z,19.17
2019-05-11T03:41:25.002Z,18.60
2019-05-11T03:43:52.727Z,19.37
2019-05-11T03:49:48.343Z,17.50
2019-05-11T03:52:16.277Z,18.63
2019-05-11T03:54:44.010Z,18.87
2019-05-11T04:00:51.488Z,18.03
2019-05-11T04:03:19.242Z,19.47
2019-05-11T04:05:46.978Z,18.27
2019-05-11T04:08:14.726Z,19.63
2019-05-11T04:10:42.444Z,20.27
2019-05-11T04:13:10.169Z,19.90
2019-05-11T04:15:37.849Z,21.20
2019-05-11T04:18:05.457Z,18.70
2019-05-11T04:20:33.425Z,20.63
2019-05-11T04:23:01.087Z,20.63
2019-05-11T04:25:28.783Z,22.63
2019-05-11T04:31:36.798Z,22.80
2019-05-11T04:34:04.563Z,24.00
2019-05-11T04:40:01.266Z,27.30
2019-05-11T04:42:29.098Z,24.27
2019-05-11T04:44:56.855Z,26.47
2019-05-11T04:50:51.916Z,25.43
2019-05-11T04:53:19.615Z,28.53
2019-05-11T04:59:16.062Z,27.97
2019-05-11T05:01:47.194Z,30.40
2019-05-11T05:04:14.988Z,30.40
2019-05-11T05:10:14.004Z,33.97
2019-05-11T05:12:50.382Z,35.07
2019-05-11T05:15:12.057Z,37.03
2019-05-11T05:21:07.257Z,36.07
2019-05-11T05:23:35.101Z,38.20
2019-05-11T05:29:44.981Z,40.33
2019-05-11T05:32:19.280Z,44.00
2019-05-11T05:34:47.261Z,42.53
2019-05-11T05:40:43.369Z,41.17
2019-05-11T05:43:25.642Z,45.83
2019-05-11T05:45:41.609Z,46.07
2019-05-11T05:48:11.380Z,46.13
2019-05-11T05:50:39.105Z,46.70
2019-05-11T05:53:06.931Z,47.17
2019-05-11T05:55:34.608Z,43.30
2019-05-11T06:01:30.273Z,45.77
2019-05-11T06:03:57.965Z,47.53
2019-05-11T06:06:58.845Z,48.60
2019-05-11T06:09:26.447Z,47.20
2019-05-11T06:11:54.075Z,46.97
2019-05-11T06:14:21.792Z,50.70
2019-05-11T06:20:29.214Z,45.90
2019-05-11T06:22:56.795Z,50.47
2019-05-11T06:25:27.451Z,45.50
2019-05-11T06:31:22.833Z,50.13
2019-05-11T06:33:55.596Z,48.27
2019-05-11T06:40:03.897Z,48.77
2019-05-11T06:42:32.414Z,45.77
2019-05-11T06:45:00.165Z,48.53
2019-05-11T06:51:10.393Z,45.63
2019-05-11T06:53:37.976Z,47.40
2019-05-11T06:56:18.048Z,45.03
2019-05-11T06:58:45.734Z,40.87
2019-05-11T07:01:15.424Z,44.03
2019-05-11T07:03:43.143Z,43.20
2019-05-11T07:06:47.418Z,42.50
2019-05-11T07:09:15.042Z,40.93
2019-05-11T07:11:42.611Z,45.07
2019-05-11T07:14:19.821Z,43.13
2019-05-11T07:17:30.975Z,41.80
2019-05-11T07:20:02.778Z,42.73
2019-05-11T07:22:30.371Z,37.30
2019-05-11T07:24:58.082Z,38.90
2019-05-11T07:27:51.881Z,34.93
2019-05-11T07:30:21.621Z,36.20
2019-05-11T07:32:49.221Z,36.37
2019-05-11T07:35:18.812Z,34.53
2019-05-11T07:38:41.878Z,34.00
2019-05-11T07:41:09.487Z,34.73
2019-05-11T07:43:38.169Z,28.83
2019-05-11T07:46:33.854Z,28.87
2019-05-11T07:49:01.424Z,28.70
2019-05-11T07:51:29.010Z,26.70
2019-05-11T07:53:57.845Z,25.30
2019-05-11T07:56:28.660Z,23.83
2019-05-11T07:58:58.020Z,23.97
2019-05-11T08:01:28.057Z,24.70
2019-05-11T08:03:55.230Z,24.87
2019-05-11T08:06:41.862Z,25.47
2019-05-11T08:09:09.427Z,23.93
2019-05-11T08:11:38.854Z,24.87
2019-05-11T08:14:07.781Z,23.63
2019-05-11T08:16:39.039Z,24.57
2019-05-11T08:19:10.338Z,21.10
2019-05-11T08:21:38.669Z,25.10
2019-05-11T08:24:08.950Z,22.97
2019-05-11T08:26:38.024Z,19.33
2019-05-11T08:29:07.944Z,20.37
2019-05-11T08:31:35.106Z,17.90
2019-05-11T08:34:02.779Z,17.80
2019-05-11T08:36:30.424Z,18.80
2019-05-11T08:38:58.712Z,19.57
2019-05-11T08:41:27.982Z,16.23
2019-05-11T08:43:55.727Z,17.23
2019-05-11T08:46:35.186Z,15.93
2019-05-11T08:49:02.819Z,17.70
2019-05-11T08:51:30.415Z,17.37
2019-05-11T08:53:58.423Z,15.13
2019-05-11T08:56:30.072Z,14.40
2019-05-11T08:58:58.884Z,17.33
2019-05-11T09:01:28.537Z,15.20
2019-05-11T09:03:58.113Z,19.63
2019-05-11T09:06:25.350Z,17.33
2019-05-11T09:08:52.917Z,12.80
2019-05-11T09:11:20.535Z,14.50
2019-05-11T09:13:48.876Z,11.20
2019-05-11T09:16:28.885Z,16.80
2019-05-11T09:18:57.970Z,16.57
2019-05-11T09:21:24.973Z,13.80
2019-05-11T09:23:52.539Z,16.17
2019-05-11T09:26:25.443Z,11.97
2019-05-11T09:28:53.066Z,12.97
2019-05-11T09:31:20.636Z,12.97
2019-05-11T09:33:48.261Z,13.80
2019-05-11T09:36:21.639Z,15.03
2019-05-11T09:38:49.229Z,11.80
2019-05-11T09:41:18.288Z,11.63
2019-05-11T09:43:48.117Z,10.50
2019-05-11T09:46:33.860Z,11.77
2019-05-11T09:49:01.405Z,10.07
2019-05-11T09:51:31.180Z,8.70
2019-05-11T09:53:58.912Z,9.03
2019-05-11T09:56:48.658Z,11.97
2019-05-11T09:59:28.133Z,9.47
2019-05-11T10:01:55.497Z,10.47
2019-05-11T10:04:24.319Z,11.67
2019-05-11T10:07:09.293Z,10.87
2019-05-11T10:09:39.234Z,9.73
2019-05-11T10:12:34.209Z,8.43
2019-05-11T10:15:04.853Z,13.17
2019-05-11T10:18:13.829Z,12.23
2019-05-11T10:20:41.517Z,10.10
2019-05-11T10:23:09.143Z,10.67
2019-05-11T10:25:38.808Z,9.70
2019-05-11T10:28:08.511Z,10.17
2019-05-11T10:30:35.648Z,10.93
2019-05-11T10:33:03.279Z,9.60
2019-05-11T10:35:30.937Z,9.13
2019-05-11T10:38:03.966Z,10.03
2019-05-11T10:40:31.536Z,8.87
2019-05-11T10:42:59.241Z,8.13
2019-05-11T10:45:28.551Z,8.07
2019-05-11T10:48:35.521Z,7.87
2019-05-11T10:51:05.495Z,8.77
2019-05-11T10:53:33.167Z,6.73
2019-05-11T10:56:23.345Z,7.73
2019-05-11T10:58:51.025Z,6.87
2019-05-11T11:01:19.044Z,7.87
2019-05-11T11:03:48.326Z,7.43
2019-05-11T11:06:39.116Z,6.87
2019-05-11T11:09:10.125Z,7.93
2019-05-11T11:11:38.351Z,9.00
2019-05-11T11:14:08.380Z,8.87
2019-05-11T11:16:52.994Z,10.07
2019-05-11T11:19:20.676Z,11.80
2019-05-11T11:21:49.184Z,8.13
2019-05-11T11:24:18.023Z,9.00
2019-05-11T11:30:28.547Z,9.20
2019-05-11T11:32:58.779Z,6.20
2019-05-11T11:35:27.927Z,7.20
2019-05-11T11:41:29.904Z,6.80
2019-05-11T11:43:59.109Z,7.93
2019-05-11T11:46:32.836Z,8.93
2019-05-11T11:49:08.257Z,7.07
2019-05-11T11:51:37.823Z,7.83
2019-05-11T11:54:05.732Z,6.23
2019-05-11T12:00:13.205Z,6.63
2019-05-11T12:02:42.202Z,7.23
2019-05-11T12:05:11.401Z,7.53
2019-05-11T12:07:51.756Z,7.90
2019-05-11T12:10:19.802Z,5.00
2019-05-11T12:12:47.633Z,5.43
2019-05-11T12:15:17.626Z,5.20
2019-05-11T12:18:54.396Z,5.77
2019-05-11T12:21:22.023Z,4.40
2019-05-11T12:23:49.742Z,3.80
2019-05-11T12:26:28.414Z,4.63
2019-05-11T12:28:58.162Z,5.37
2019-05-11T12:31:28.572Z,5.83
2019-05-11T12:33:58.452Z,2.53
2019-05-11T12:39:53.158Z,6.43
2019-05-11T12:42:21.367Z,4.67
2019-05-11T12:44:49.433Z,6.93
2019-05-11T12:50:33.077Z,5.17
2019-05-11T12:53:03.344Z,4.73
2019-05-11T12:55:31.685Z,5.50
2019-05-11T13:01:39.457Z,5.77
2019-05-11T13:04:14.681Z,4.60
2019-05-11T13:10:14.248Z,3.63
2019-05-11T13:12:42.284Z,4.27
2019-05-11T13:15:10.511Z,5.27
2019-05-11T13:21:20.865Z,6.53
2019-05-11T13:23:49.104Z,5.07
2019-05-11T13:29:45.113Z,3.87
2019-05-11T13:32:13.353Z,5.33
2019-05-11T13:34:41.595Z,4.37
2019-05-11T13:40:43.213Z,5.60
2019-05-11T13:43:11.972Z,5.87
2019-05-11T13:45:39.987Z,3.60
2019-05-11T13:48:10.882Z,3.63
2019-05-11T13:50:38.812Z,4.23
2019-05-11T13:53:07.743Z,6.03
2019-05-11T13:55:35.792Z,5.00
2019-05-11T14:01:43.832Z,5.57
2019-05-11T14:04:17.895Z,3.67
2019-05-11T14:10:11.986Z,6.60
2019-05-11T14:12:40.923Z,8.27
2019-05-11T14:15:18.810Z,6.43
2019-05-11T14:21:27.980Z,7.50
2019-05-11T14:24:07.584Z,7.23
2019-05-11T14:29:59.260Z,8.40
2019-05-11T14:32:28.474Z,6.27
2019-05-11T14:34:57.791Z,5.90
2019-05-11T14:40:53.604Z,5.33
2019-05-11T14:43:22.634Z,6.53
2019-05-11T14:49:18.591Z,5.80
2019-05-11T14:51:48.486Z,5.13
2019-05-11T14:54:18.553Z,5.83
2019-05-11T15:00:18.973Z,5.73
2019-05-11T15:02:52.733Z,5.30
2019-05-11T15:05:20.994Z,4.33
2019-05-11T15:11:18.909Z,6.23
2019-05-11T15:13:48.885Z,5.43
2019-05-11T15:16:29.833Z,4.90
2019-05-11T15:18:58.566Z,6.47
2019-05-11T15:21:28.095Z,4.77
2019-05-11T15:23:57.960Z,5.97
2019-05-11T15:26:27.751Z,7.90
2019-05-11T15:28:55.515Z,7.30
2019-05-11T15:32:02.842Z,6.13
2019-05-11T15:34:38.168Z,9.03
2019-05-11T15:37:13.674Z,6.27
2019-05-11T15:39:41.811Z,5.57
2019-05-11T15:42:16.915Z,5.23
2019-05-11T15:44:44.524Z,5.27
2019-05-11T15:50:19.084Z,6.00
2019-05-11T15:52:49.824Z,4.93
2019-05-11T15:55:18.825Z,6.70
2019-05-11T15:57:58.943Z,6.63
2019-05-11T16:00:26.566Z,6.37
2019-05-11T16:02:54.164Z,8.57
2019-05-11T16:05:21.919Z,6.43
2019-05-11T16:08:09.095Z,6.33
2019-05-11T16:10:38.392Z,8.43
2019-05-11T16:13:06.202Z,4.63
2019-05-11T16:15:35.541Z,7.17
2019-05-11T16:21:31.948Z,8.57
2019-05-11T16:23:59.817Z,10.07
2019-05-11T16:30:09.123Z,6.87
2019-05-11T16:32:38.607Z,8.00
2019-05-11T16:35:08.795Z,6.53
2019-05-11T16:41:05.018Z,6.30
2019-05-11T16:43:32.763Z,7.40
2019-05-11T16:46:50.467Z,4.20
2019-05-11T16:49:26.100Z,7.90
2019-05-11T16:51:47.974Z,6.60
2019-05-11T16:54:15.985Z,7.53
2019-05-11T16:57:51.732Z,5.77
2019-05-11T17:00:19.646Z,4.20
2019-05-11T17:02:48.951Z,4.07
2019-05-11T17:05:26.058Z,5.33
2019-05-11T17:07:54.151Z,4.70
2019-05-11T17:10:21.777Z,5.77
2019-05-11T17:12:49.625Z,8.47
2019-05-11T17:15:18.475Z,6.90
2019-05-11T17:18:35.628Z,7.53
2019-05-11T17:21:07.606Z,6.90
2019-05-11T17:23:35.257Z,6.50
2019-05-11T17:29:30.201Z,6.53
2019-05-11T17:31:58.099Z,7.97
2019-05-11T17:34:25.801Z,3.73
2019-05-11T17:40:33.673Z,7.07
2019-05-11T17:43:01.331Z,8.33
2019-05-11T17:45:30.298Z,8.10
2019-05-11T17:51:21.258Z,7.60
2019-05-11T17:53:48.084Z,5.23
2019-05-11T17:59:43.782Z,8.43
2019-05-11T18:02:11.497Z,6.87
2019-05-11T18:04:39.418Z,4.87
2019-05-11T18:07:30.916Z,6.17
2019-05-11T18:09:58.722Z,7.63
2019-05-11T18:12:28.565Z,5.33
2019-05-11T18:14:58.486Z,9.00
2019-05-11T18:17:50.579Z,7.60
2019-05-11T18:20:21.818Z,8.07
2019-05-11T18:22:49.114Z,5.73
2019-05-11T18:25:18.195Z,6.37
2019-05-11T18:28:03.758Z,5.70
2019-05-11T18:30:31.446Z,5.27
2019-05-11T18:33:08.290Z,6.10
2019-05-11T18:35:36.097Z,9.27
2019-05-11T18:38:05.344Z,8.17
2019-05-11T18:40:33.020Z,8.10
2019-05-11T18:43:00.684Z,7.03
2019-05-11T18:45:28.792Z,8.13
2019-05-11T18:47:56.581Z,6.33
2019-05-11T18:50:31.017Z,6.27
2019-05-11T18:52:54.702Z,7.27
2019-05-11T18:55:22.383Z,6.97
2019-05-11T18:58:29.249Z,6.97
2019-05-11T19:00:57.505Z,3.70
2019-05-11T19:04:20.187Z,6.90
2019-05-11T19:10:08.598Z,4.60
2019-05-11T19:12:37.649Z,5.37
2019-05-11T19:15:07.730Z,4.60
2019-05-11T19:17:35.168Z,4.70
2019-05-11T19:20:02.969Z,9.63
2019-05-11T19:22:30.512Z,4.83
2019-05-11T19:24:58.354Z,6.37
2019-05-11T19:27:25.889Z,4.13
2019-05-11T19:29:53.368Z,8.17
2019-05-11T19:32:20.950Z,7.47
2019-05-11T19:34:48.524Z,9.17
2019-05-11T19:37:18.770Z,8.30
2019-05-11T19:39:48.517Z,6.03
2019-05-11T19:42:17.810Z,6.47
2019-05-11T19:44:45.014Z,5.57
2019-05-11T19:47:12.538Z,6.33
2019-05-11T19:49:40.129Z,5.80
2019-05-11T19:52:08.638Z,6.13
2019-05-11T19:54:38.224Z,9.40
2019-05-11T19:57:08.208Z,8.00
2019-05-11T19:59:35.072Z,8.50
2019-05-11T20:02:02.661Z,5.13
2019-05-11T20:04:30.236Z,7.90
2019-05-11T20:06:58.279Z,4.40
2019-05-11T20:09:28.148Z,4.63
2019-05-11T20:11:55.220Z,4.70
2019-05-11T20:14:22.871Z,5.10
2019-05-11T20:16:50.492Z,4.87
2019-05-11T20:19:18.728Z,6.90
2019-05-11T20:21:48.425Z,6.20
2019-05-11T20:24:15.727Z,4.83
2019-05-11T20:26:56.354Z,7.53
2019-05-11T20:29:23.907Z,6.97
2019-05-11T20:31:51.453Z,5.83
2019-05-11T20:34:18.915Z,6.87
2019-05-11T20:36:50.624Z,7.57
2019-05-11T20:39:18.168Z,6.77
2019-05-11T20:41:47.642Z,8.10
2019-05-11T20:44:15.040Z,9.00
2019-05-11T20:46:42.659Z,5.03
2019-05-11T20:49:10.137Z,5.73
2019-05-11T20:51:37.571Z,4.27
2019-05-11T20:54:05.146Z,3.90
2019-05-11T20:57:05.973Z,4.63
2019-05-11T20:59:33.580Z,3.73
2019-05-11T21:02:01.042Z,5.30
2019-05-11T21:04:28.632Z,5.30
2019-05-11T21:06:59.244Z,4.23
2019-05-11T21:09:28.782Z,5.67
2019-05-11T21:11:58.628Z,5.33
2019-05-11T21:14:25.502Z,4.77
2019-05-11T21:17:00.379Z,7.70
2019-05-11T21:19:28.470Z,4.53
2019-05-11T21:21:58.763Z,5.90
2019-05-11T21:24:25.384Z,6.60
2019-05-11T21:26:54.033Z,5.93
2019-05-11T21:29:21.573Z,4.63
2019-05-11T21:31:49.101Z,6.27
2019-05-11T21:34:18.151Z,6.40
2019-05-11T21:36:50.419Z,6.00
2019-05-11T21:39:17.903Z,6.70
2019-05-11T21:41:47.698Z,7.77
2019-05-11T21:44:14.738Z,6.83
2019-05-11T21:46:50.524Z,5.13
2019-05-11T21:49:18.569Z,6.63
2019-05-11T21:51:48.096Z,5.17
2019-05-11T21:54:15.495Z,9.93
2019-05-11T21:56:42.972Z,4.50
2019-05-11T21:59:10.538Z,5.90
2019-05-11T22:01:38.585Z,5.90
2019-05-11T22:04:08.419Z,8.20
2019-05-11T22:06:35.480Z,8.97
2019-05-11T22:09:04.838Z,5.00
2019-05-11T22:11:32.360Z,6.97
2019-05-11T22:13:59.902Z,6.27
2019-05-11T22:16:29.854Z,6.97
2019-05-11T22:18:57.976Z,6.87
2019-05-11T22:21:27.937Z,3.63
2019-05-11T22:23:55.271Z,7.10
2019-05-11T22:26:22.680Z,5.47
2019-05-11T22:28:50.111Z,4.33
2019-05-11T22:31:18.197Z,5.27
2019-05-11T22:33:47.917Z,6.33
2019-05-11T22:36:15.294Z,5.53
2019-05-11T22:38:42.818Z,6.13
2019-05-11T22:41:10.356Z,3.77
2019-05-11T22:43:37.955Z,5.53
2019-05-11T22:46:05.582Z,6.57
2019-05-11T22:48:33.164Z,5.80
2019-05-11T22:51:00.616Z,4.67
2019-05-11T22:53:42.962Z,6.50
2019-05-11T22:55:58.508Z,3.43
2019-05-11T22:58:26.031Z,4.97
2019-05-11T23:00:53.568Z,4.33
2019-05-11T23:03:22.886Z,6.37
2019-05-11T23:05:50.434Z,4.17
2019-05-11T23:08:18.270Z,4.50
2019-05-11T23:10:47.800Z,6.40
2019-05-11T23:13:15.153Z,6.53
2019-05-11T23:15:42.762Z,5.47
2019-05-11T23:18:10.270Z,5.53
2019-05-11T23:20:38.639Z,4.63
2019-05-11T23:23:08.473Z,5.43
2019-05-11T23:25:35.823Z,5.97
2019-05-11T23:28:03.226Z,5.13
2019-05-11T23:30:30.683Z,6.83
2019-05-11T23:32:58.708Z,5.13
2019-05-11T23:35:28.437Z,5.37
2019-05-11T23:37:57.967Z,5.17
2019-05-11T23:40:25.101Z,7.47
2019-05-11T23:42:52.994Z,5.60
2019-05-11T23:45:20.551Z,7.17
2019-05-11T23:47:51.736Z,7.33
2019-05-11T23:50:18.968Z,5.77
2019-05-11T23:52:50.187Z,6.07
2019-05-11T23:55:18.671Z,7.83
2019-05-11T23:57:45.447Z,5.93
